Aérodrome :
LOGIN :

S'inscrire | Disclaimer

   EN    FR    IT 

 










Légende :    VFR   VFR Marginal   IFR   IFR Intensif   IFR Très Intensif
Visi : 
Plafond : 
>= 8 km
>= 3000ft
5 à 8 km
1000 à 3000 ft
1500m à 5 km
500 à 1000 ft
800 à 1500m
200 à 500 ft
< 800m
< 200 ft
Symboles :   Orages  Brouillard  Fortes neiges  Fortes précipitations  Vent > 20 kt
SIGMETs :   Divers  Orages  Givrage  Turbulence  Onde Orograph.  Cendres Volcan.






- Altitude de l'aérodrome : 650 ft
- Code IATA : ZJI


LSZL - Locarno

DERNIER METAR :
  • 271450Z 33009G19KT 270V020 9999 FEW025 OVC060 07/M04 Q1008 RMK BLU

METARs EXPIRÉS :
  • 271420Z 29010KT 9999 OVC060 08/M08 Q1007 RMK BLU
  • 271350Z 24005KT 170V330 9999 OVC060 08/M06 Q1008 RMK BLU
  • 271320Z 32003KT 260V360 9999 SCT060 07/M06 Q1008 RMK BLU+
  • 271220Z 28003KT 240V320 9999 SCT099 08/M06 Q1009 RMK BLU+

TAF TAF LSZL
Valide du 27 à 12h jusqu'au 27 à 21h UTC


271125Z 2712/2721 VRB03KT 9999 FEW090
PROB30 2715/2721 SHRA



MET'MAP, la Météo Aéronautique d'un coup d'oeil ! - Copyright ORBIFLY Décembre 2007 - Disclaimer

ORBIFLY MET'MAP TEAM :

Programmation & Développement : Alexandra Zaïnal
Sur une idée originale de : Baudouin d'Aumeries
Assistance à la programmation : Marc-Olivier Méhu
Soutien technique & logistique : Manuel Goepfert

Contact : metmap@orbifly.com




SOURCES & CREDITS :

   NOAA